sensor_id;sensor_type;location;lat;lon;timestamp;P1;durP1;ratioP1;P2;durP2;ratioP2
58308;SDS011;44117;57.142;24.826;2022-08-19T00:02:13;14.30;;;9.57;;
58308;SDS011;44117;57.142;24.826;2022-08-19T00:04:41;14.73;;;9.38;;
58308;SDS011;44117;57.142;24.826;2022-08-19T00:07:08;13.75;;;9.32;;
58308;SDS011;44117;57.142;24.826;2022-08-19T00:09:35;15.77;;;9.30;;
58308;SDS011;44117;57.142;24.826;2022-08-19T00:12:03;15.18;;;9.75;;
58308;SDS011;44117;57.142;24.826;2022-08-19T00:14:30;11.73;;;9.15;;
58308;SDS011;44117;57.142;24.826;2022-08-19T00:16:58;14.88;;;9.27;;
58308;SDS011;44117;57.142;24.826;2022-08-19T00:19:26;13.68;;;10.07;;
58308;SDS011;44117;57.142;24.826;2022-08-19T00:21:53;14.25;;;9.95;;
58308;SDS011;44117;57.142;24.826;2022-08-19T00:24:22;13.32;;;9.15;;
58308;SDS011;44117;57.142;24.826;2022-08-19T00:26:50;15.57;;;9.98;;
58308;SDS011;44117;57.142;24.826;2022-08-19T00:29:19;16.10;;;9.45;;
58308;SDS011;44117;57.142;24.826;2022-08-19T00:31:47;13.60;;;9.43;;
58308;SDS011;44117;57.142;24.826;2022-08-19T00:34:16;13.68;;;9.85;;
58308;SDS011;44117;57.142;24.826;2022-08-19T00:36:44;15.80;;;9.65;;
58308;SDS011;44117;57.142;24.826;2022-08-19T00:39:12;16.35;;;9.80;;
58308;SDS011;44117;57.142;24.826;2022-08-19T00:41:41;15.82;;;9.70;;
58308;SDS011;44117;57.142;24.826;2022-08-19T00:44:17;13.13;;;9.55;;
58308;SDS011;44117;57.142;24.826;2022-08-19T00:46:53;13.85;;;9.45;;
58308;SDS011;44117;57.142;24.826;2022-08-19T00:49:25;15.05;;;9.23;;
58308;SDS011;44117;57.142;24.826;2022-08-19T00:52:11;13.02;;;9.98;;
58308;SDS011;44117;57.142;24.826;2022-08-19T00:54:43;15.38;;;9.85;;
58308;SDS011;44117;57.142;24.826;2022-08-19T00:57:17;16.92;;;9.73;;
58308;SDS011;44117;57.142;24.826;2022-08-19T00:59:48;17.27;;;10.50;;
58308;SDS011;44117;57.142;24.826;2022-08-19T01:02:28;15.30;;;9.75;;
58308;SDS011;44117;57.142;24.826;2022-08-19T01:04:56;14.57;;;9.43;;
58308;SDS011;44117;57.142;24.826;2022-08-19T01:07:25;13.35;;;10.00;;
58308;SDS011;44117;57.142;24.826;2022-08-19T01:09:53;14.85;;;9.90;;
58308;SDS011;44117;57.142;24.826;2022-08-19T01:12:20;18.67;;;9.63;;
58308;SDS011;44117;57.142;24.826;2022-08-19T01:14:48;14.05;;;9.77;;
58308;SDS011;44117;57.142;24.826;2022-08-19T01:17:16;14.13;;;9.80;;
58308;SDS011;44117;57.142;24.826;2022-08-19T01:19:45;16.88;;;9.10;;
58308;SDS011;44117;57.142;24.826;2022-08-19T01:24:42;16.98;;;9.95;;
58308;SDS011;44117;57.142;24.826;2022-08-19T01:27:15;14.43;;;9.90;;
58308;SDS011;44117;57.142;24.826;2022-08-19T01:29:44;16.58;;;9.75;;
58308;SDS011;44117;57.142;24.826;2022-08-19T01:32:13;11.85;;;8.82;;
58308;SDS011;44117;57.142;24.826;2022-08-19T01:34:59;12.98;;;9.15;;
58308;SDS011;44117;57.142;24.826;2022-08-19T01:37:28;12.75;;;10.00;;
58308;SDS011;44117;57.142;24.826;2022-08-19T01:39:57;11.70;;;9.13;;
58308;SDS011;44117;57.142;24.826;2022-08-19T01:42:24;14.85;;;9.32;;
58308;SDS011;44117;57.142;24.826;2022-08-19T01:44:56;14.18;;;9.52;;
58308;SDS011;44117;57.142;24.826;2022-08-19T01:47:23;14.10;;;9.75;;
58308;SDS011;44117;57.142;24.826;2022-08-19T01:49:50;16.58;;;9.52;;
58308;SDS011;44117;57.142;24.826;2022-08-19T01:52:18;16.38;;;10.05;;
58308;SDS011;44117;57.142;24.826;2022-08-19T01:54:46;12.43;;;9.48;;
58308;SDS011;44117;57.142;24.826;2022-08-19T01:57:13;15.80;;;10.07;;
58308;SDS011;44117;57.142;24.826;2022-08-19T01:59:41;17.00;;;9.68;;
58308;SDS011;44117;57.142;24.826;2022-08-19T02:02:10;14.95;;;9.05;;
58308;SDS011;44117;57.142;24.826;2022-08-19T02:04:38;12.57;;;9.15;;
58308;SDS011;44117;57.142;24.826;2022-08-19T02:07:05;15.75;;;9.88;;
58308;SDS011;44117;57.142;24.826;2022-08-19T02:09:34;15.25;;;9.88;;
58308;SDS011;44117;57.142;24.826;2022-08-19T02:12:02;10.52;;;9.25;;
58308;SDS011;44117;57.142;24.826;2022-08-19T02:14:30;15.32;;;9.57;;
58308;SDS011;44117;57.142;24.826;2022-08-19T02:17:00;13.02;;;9.32;;
58308;SDS011;44117;57.142;24.826;2022-08-19T02:19:27;17.52;;;9.60;;
58308;SDS011;44117;57.142;24.826;2022-08-19T02:21:54;15.05;;;9.55;;
58308;SDS011;44117;57.142;24.826;2022-08-19T02:24:22;15.93;;;9.35;;
58308;SDS011;44117;57.142;24.826;2022-08-19T02:26:49;11.55;;;9.98;;
58308;SDS011;44117;57.142;24.826;2022-08-19T02:29:17;11.07;;;9.20;;
58308;SDS011;44117;57.142;24.826;2022-08-19T02:31:44;12.27;;;8.80;;
58308;SDS011;44117;57.142;24.826;2022-08-19T02:34:12;14.77;;;9.00;;
58308;SDS011;44117;57.142;24.826;2022-08-19T02:36:39;12.68;;;9.50;;
58308;SDS011;44117;57.142;24.826;2022-08-19T02:39:08;16.08;;;9.68;;
58308;SDS011;44117;57.142;24.826;2022-08-19T02:41:36;13.80;;;8.98;;
58308;SDS011;44117;57.142;24.826;2022-08-19T02:44:04;14.48;;;9.50;;
58308;SDS011;44117;57.142;24.826;2022-08-19T02:46:51;15.68;;;8.93;;
58308;SDS011;44117;57.142;24.826;2022-08-19T02:49:19;13.07;;;8.68;;
58308;SDS011;44117;57.142;24.826;2022-08-19T02:51:46;12.45;;;8.90;;
58308;SDS011;44117;57.142;24.826;2022-08-19T02:54:14;12.27;;;8.98;;
58308;SDS011;44117;57.142;24.826;2022-08-19T02:56:43;16.48;;;8.98;;
58308;SDS011;44117;57.142;24.826;2022-08-19T02:59:11;13.02;;;9.02;;
58308;SDS011;44117;57.142;24.826;2022-08-19T03:01:39;14.73;;;8.75;;
58308;SDS011;44117;57.142;24.826;2022-08-19T03:04:09;13.95;;;9.05;;
58308;SDS011;44117;57.142;24.826;2022-08-19T03:06:39;18.05;;;8.80;;
58308;SDS011;44117;57.142;24.826;2022-08-19T03:09:08;12.20;;;8.50;;
58308;SDS011;44117;57.142;24.826;2022-08-19T03:11:36;17.40;;;9.18;;
58308;SDS011;44117;57.142;24.826;2022-08-19T03:14:04;15.25;;;8.82;;
58308;SDS011;44117;57.142;24.826;2022-08-19T03:16:34;11.73;;;9.13;;
58308;SDS011;44117;57.142;24.826;2022-08-19T03:19:07;12.75;;;8.50;;
58308;SDS011;44117;57.142;24.826;2022-08-19T03:21:34;12.15;;;8.93;;
58308;SDS011;44117;57.142;24.826;2022-08-19T03:24:03;13.98;;;8.38;;
58308;SDS011;44117;57.142;24.826;2022-08-19T03:26:32;13.30;;;9.13;;
58308;SDS011;44117;57.142;24.826;2022-08-19T03:29:04;13.95;;;8.82;;
58308;SDS011;44117;57.142;24.826;2022-08-19T03:31:34;15.07;;;9.57;;
58308;SDS011;44117;57.142;24.826;2022-08-19T03:34:24;12.85;;;8.93;;
58308;SDS011;44117;57.142;24.826;2022-08-19T03:36:55;15.18;;;8.95;;
58308;SDS011;44117;57.142;24.826;2022-08-19T03:39:24;13.70;;;8.75;;
58308;SDS011;44117;57.142;24.826;2022-08-19T03:41:54;14.30;;;8.88;;
58308;SDS011;44117;57.142;24.826;2022-08-19T03:44:46;10.27;;;8.73;;
58308;SDS011;44117;57.142;24.826;2022-08-19T03:47:13;13.23;;;9.18;;
58308;SDS011;44117;57.142;24.826;2022-08-19T03:49:41;11.98;;;8.48;;
58308;SDS011;44117;57.142;24.826;2022-08-19T03:52:09;14.27;;;8.80;;
58308;SDS011;44117;57.142;24.826;2022-08-19T03:54:36;11.70;;;8.75;;
58308;SDS011;44117;57.142;24.826;2022-08-19T03:57:04;13.07;;;9.02;;
58308;SDS011;44117;57.142;24.826;2022-08-19T03:59:34;14.85;;;9.02;;
58308;SDS011;44117;57.142;24.826;2022-08-19T04:02:03;14.40;;;8.73;;
58308;SDS011;44117;57.142;24.826;2022-08-19T04:04:36;13.73;;;8.95;;
58308;SDS011;44117;57.142;24.826;2022-08-19T04:07:04;11.70;;;9.25;;
58308;SDS011;44117;57.142;24.826;2022-08-19T04:09:33;14.68;;;9.75;;
58308;SDS011;44117;57.142;24.826;2022-08-19T04:12:03;16.05;;;8.75;;
58308;SDS011;44117;57.142;24.826;2022-08-19T04:14:31;15.10;;;9.90;;
58308;SDS011;44117;57.142;24.826;2022-08-19T04:17:00;12.23;;;9.35;;
58308;SDS011;44117;57.142;24.826;2022-08-19T04:19:31;19.05;;;8.85;;
58308;SDS011;44117;57.142;24.826;2022-08-19T04:22:00;15.10;;;9.18;;
58308;SDS011;44117;57.142;24.826;2022-08-19T04:24:29;12.77;;;9.48;;
58308;SDS011;44117;57.142;24.826;2022-08-19T04:26:58;11.07;;;8.45;;
58308;SDS011;44117;57.142;24.826;2022-08-19T04:29:27;14.52;;;9.20;;
58308;SDS011;44117;57.142;24.826;2022-08-19T04:31:56;12.50;;;8.85;;
58308;SDS011;44117;57.142;24.826;2022-08-19T04:34:26;11.70;;;8.57;;
58308;SDS011;44117;57.142;24.826;2022-08-19T04:36:56;13.70;;;8.98;;
58308;SDS011;44117;57.142;24.826;2022-08-19T04:39:30;14.30;;;9.32;;
58308;SDS011;44117;57.142;24.826;2022-08-19T04:42:16;16.83;;;9.60;;
58308;SDS011;44117;57.142;24.826;2022-08-19T04:45:04;20.40;;;9.07;;
58308;SDS011;44117;57.142;24.826;2022-08-19T04:47:37;15.45;;;8.63;;
58308;SDS011;44117;57.142;24.826;2022-08-19T04:50:24;16.48;;;8.70;;
58308;SDS011;44117;57.142;24.826;2022-08-19T04:52:52;14.98;;;8.55;;
58308;SDS011;44117;57.142;24.826;2022-08-19T04:55:21;21.45;;;9.40;;
58308;SDS011;44117;57.142;24.826;2022-08-19T04:57:52;15.35;;;8.85;;
58308;SDS011;44117;57.142;24.826;2022-08-19T05:00:20;14.57;;;8.77;;
58308;SDS011;44117;57.142;24.826;2022-08-19T05:02:47;12.27;;;8.38;;
58308;SDS011;44117;57.142;24.826;2022-08-19T05:05:15;15.45;;;8.25;;
58308;SDS011;44117;57.142;24.826;2022-08-19T05:07:43;13.52;;;8.35;;
58308;SDS011;44117;57.142;24.826;2022-08-19T05:10:10;14.60;;;9.13;;
58308;SDS011;44117;57.142;24.826;2022-08-19T05:12:39;13.10;;;8.15;;
58308;SDS011;44117;57.142;24.826;2022-08-19T05:15:06;14.27;;;8.18;;
58308;SDS011;44117;57.142;24.826;2022-08-19T05:17:37;14.60;;;8.93;;
58308;SDS011;44117;57.142;24.826;2022-08-19T05:20:24;14.93;;;8.40;;
58308;SDS011;44117;57.142;24.826;2022-08-19T05:23:11;10.73;;;8.40;;
58308;SDS011;44117;57.142;24.826;2022-08-19T05:25:47;12.18;;;8.27;;
58308;SDS011;44117;57.142;24.826;2022-08-19T05:28:16;12.38;;;7.93;;
58308;SDS011;44117;57.142;24.826;2022-08-19T05:30:45;13.57;;;8.45;;
58308;SDS011;44117;57.142;24.826;2022-08-19T05:33:13;13.32;;;7.93;;
58308;SDS011;44117;57.142;24.826;2022-08-19T05:35:40;12.20;;;7.95;;
58308;SDS011;44117;57.142;24.826;2022-08-19T05:38:07;13.88;;;7.90;;
58308;SDS011;44117;57.142;24.826;2022-08-19T05:40:35;12.38;;;8.13;;
58308;SDS011;44117;57.142;24.826;2022-08-19T05:43:04;12.43;;;7.90;;
58308;SDS011;44117;57.142;24.826;2022-08-19T05:45:37;12.88;;;8.00;;
58308;SDS011;44117;57.142;24.826;2022-08-19T05:48:06;16.02;;;8.30;;
58308;SDS011;44117;57.142;24.826;2022-08-19T05:50:41;13.75;;;8.57;;
58308;SDS011;44117;57.142;24.826;2022-08-19T05:53:08;15.40;;;8.80;;
58308;SDS011;44117;57.142;24.826;2022-08-19T05:55:35;11.93;;;9.30;;
58308;SDS011;44117;57.142;24.826;2022-08-19T05:58:04;14.65;;;9.23;;
58308;SDS011;44117;57.142;24.826;2022-08-19T06:00:34;12.85;;;9.35;;
58308;SDS011;44117;57.142;24.826;2022-08-19T06:03:03;13.02;;;7.45;;
58308;SDS011;44117;57.142;24.826;2022-08-19T06:05:38;10.07;;;7.20;;
58308;SDS011;44117;57.142;24.826;2022-08-19T06:08:17;14.05;;;7.93;;
58308;SDS011;44117;57.142;24.826;2022-08-19T06:10:44;11.07;;;8.07;;
58308;SDS011;44117;57.142;24.826;2022-08-19T06:13:12;13.15;;;8.50;;
58308;SDS011;44117;57.142;24.826;2022-08-19T06:15:39;14.82;;;8.63;;
58308;SDS011;44117;57.142;24.826;2022-08-19T06:18:10;10.63;;;6.80;;
58308;SDS011;44117;57.142;24.826;2022-08-19T06:20:38;14.45;;;7.40;;
58308;SDS011;44117;57.142;24.826;2022-08-19T06:23:21;12.18;;;6.75;;
58308;SDS011;44117;57.142;24.826;2022-08-19T06:25:49;12.80;;;7.50;;
58308;SDS011;44117;57.142;24.826;2022-08-19T06:28:17;10.68;;;6.75;;
58308;SDS011;44117;57.142;24.826;2022-08-19T06:30:44;16.23;;;7.50;;
58308;SDS011;44117;57.142;24.826;2022-08-19T06:33:11;10.52;;;6.80;;
58308;SDS011;44117;57.142;24.826;2022-08-19T06:35:39;14.23;;;7.35;;
58308;SDS011;44117;57.142;24.826;2022-08-19T06:38:08;12.50;;;6.85;;
58308;SDS011;44117;57.142;24.826;2022-08-19T06:40:35;10.75;;;6.40;;
58308;SDS011;44117;57.142;24.826;2022-08-19T06:43:04;12.18;;;6.60;;
58308;SDS011;44117;57.142;24.826;2022-08-19T06:45:36;13.98;;;6.22;;
58308;SDS011;44117;57.142;24.826;2022-08-19T06:48:05;11.25;;;6.88;;
58308;SDS011;44117;57.142;24.826;2022-08-19T06:50:33;13.30;;;5.90;;
58308;SDS011;44117;57.142;24.826;2022-08-19T06:53:05;13.70;;;6.63;;
58308;SDS011;44117;57.142;24.826;2022-08-19T06:55:32;12.40;;;5.93;;
58308;SDS011;44117;57.142;24.826;2022-08-19T06:58:02;11.70;;;5.90;;
58308;SDS011;44117;57.142;24.826;2022-08-19T07:00:30;12.15;;;6.57;;
58308;SDS011;44117;57.142;24.826;2022-08-19T07:02:58;16.38;;;6.57;;
58308;SDS011;44117;57.142;24.826;2022-08-19T07:07:59;11.60;;;6.13;;
58308;SDS011;44117;57.142;24.826;2022-08-19T07:10:30;8.98;;;5.63;;
58308;SDS011;44117;57.142;24.826;2022-08-19T07:12:59;14.02;;;6.25;;
58308;SDS011;44117;57.142;24.826;2022-08-19T07:15:26;12.68;;;6.80;;
58308;SDS011;44117;57.142;24.826;2022-08-19T07:17:54;12.30;;;6.50;;
58308;SDS011;44117;57.142;24.826;2022-08-19T07:20:21;13.00;;;6.28;;
58308;SDS011;44117;57.142;24.826;2022-08-19T07:22:53;11.50;;;5.73;;
58308;SDS011;44117;57.142;24.826;2022-08-19T07:25:21;16.17;;;6.10;;
58308;SDS011;44117;57.142;24.826;2022-08-19T07:27:58;12.05;;;6.18;;
58308;SDS011;44117;57.142;24.826;2022-08-19T07:30:27;9.98;;;5.93;;
58308;SDS011;44117;57.142;24.826;2022-08-19T07:32:54;12.10;;;5.75;;
58308;SDS011;44117;57.142;24.826;2022-08-19T07:35:22;14.18;;;5.80;;
58308;SDS011;44117;57.142;24.826;2022-08-19T07:37:49;15.70;;;5.80;;
58308;SDS011;44117;57.142;24.826;2022-08-19T07:40:17;15.95;;;5.15;;
58308;SDS011;44117;57.142;24.826;2022-08-19T07:42:44;13.35;;;4.70;;
58308;SDS011;44117;57.142;24.826;2022-08-19T07:45:12;10.43;;;4.80;;
58308;SDS011;44117;57.142;24.826;2022-08-19T07:47:39;11.68;;;5.57;;
58308;SDS011;44117;57.142;24.826;2022-08-19T07:50:16;12.10;;;5.53;;
58308;SDS011;44117;57.142;24.826;2022-08-19T07:52:46;8.57;;;4.60;;
58308;SDS011;44117;57.142;24.826;2022-08-19T07:55:17;15.98;;;5.40;;
58308;SDS011;44117;57.142;24.826;2022-08-19T07:58:06;13.43;;;5.32;;
58308;SDS011;44117;57.142;24.826;2022-08-19T08:00:34;11.68;;;5.30;;
58308;SDS011;44117;57.142;24.826;2022-08-19T08:03:02;10.20;;;4.60;;
58308;SDS011;44117;57.142;24.826;2022-08-19T08:05:29;13.80;;;4.63;;
58308;SDS011;44117;57.142;24.826;2022-08-19T08:08:15;8.60;;;4.65;;
58308;SDS011;44117;57.142;24.826;2022-08-19T08:11:13;7.88;;;4.72;;
58308;SDS011;44117;57.142;24.826;2022-08-19T08:13:46;10.13;;;4.72;;
58308;SDS011;44117;57.142;24.826;2022-08-19T08:16:29;10.95;;;4.70;;
58308;SDS011;44117;57.142;24.826;2022-08-19T08:19:00;12.48;;;4.80;;
58308;SDS011;44117;57.142;24.826;2022-08-19T08:21:27;8.88;;;5.03;;
58308;SDS011;44117;57.142;24.826;2022-08-19T08:23:54;9.93;;;4.65;;
58308;SDS011;44117;57.142;24.826;2022-08-19T08:26:22;15.10;;;5.20;;
58308;SDS011;44117;57.142;24.826;2022-08-19T08:28:50;12.07;;;5.00;;
58308;SDS011;44117;57.142;24.826;2022-08-19T08:31:18;14.65;;;4.93;;
58308;SDS011;44117;57.142;24.826;2022-08-19T08:33:45;9.25;;;4.53;;
58308;SDS011;44117;57.142;24.826;2022-08-19T08:36:13;7.63;;;4.10;;
58308;SDS011;44117;57.142;24.826;2022-08-19T08:38:41;6.40;;;4.13;;
58308;SDS011;44117;57.142;24.826;2022-08-19T08:43:54;10.00;;;4.03;;
58308;SDS011;44117;57.142;24.826;2022-08-19T08:54:40;7.03;;;4.32;;
58308;SDS011;44117;57.142;24.826;2022-08-19T09:00:17;10.93;;;4.30;;
58308;SDS011;44117;57.142;24.826;2022-08-19T09:02:47;14.48;;;4.60;;
58308;SDS011;44117;57.142;24.826;2022-08-19T09:05:17;11.52;;;4.53;;
58308;SDS011;44117;57.142;24.826;2022-08-19T09:10:38;9.88;;;4.47;;
58308;SDS011;44117;57.142;24.826;2022-08-19T09:16:07;10.80;;;4.57;;
58308;SDS011;44117;57.142;24.826;2022-08-19T09:18:45;9.75;;;5.13;;
58308;SDS011;44117;57.142;24.826;2022-08-19T09:21:15;10.80;;;4.72;;
58308;SDS011;44117;57.142;24.826;2022-08-19T09:23:43;10.50;;;4.32;;
58308;SDS011;44117;57.142;24.826;2022-08-19T09:26:17;13.48;;;4.93;;
58308;SDS011;44117;57.142;24.826;2022-08-19T09:28:48;13.35;;;4.93;;
58308;SDS011;44117;57.142;24.826;2022-08-19T09:31:20;13.90;;;5.03;;
58308;SDS011;44117;57.142;24.826;2022-08-19T09:33:50;15.07;;;4.82;;
58308;SDS011;44117;57.142;24.826;2022-08-19T09:36:19;14.98;;;4.82;;
58308;SDS011;44117;57.142;24.826;2022-08-19T09:39:00;10.27;;;4.55;;
58308;SDS011;44117;57.142;24.826;2022-08-19T09:41:27;10.40;;;5.20;;
58308;SDS011;44117;57.142;24.826;2022-08-19T09:43:55;10.38;;;5.53;;
58308;SDS011;44117;57.142;24.826;2022-08-19T09:46:25;14.25;;;5.88;;
58308;SDS011;44117;57.142;24.826;2022-08-19T09:48:56;14.02;;;5.57;;
58308;SDS011;44117;57.142;24.826;2022-08-19T09:51:32;10.25;;;5.45;;
58308;SDS011;44117;57.142;24.826;2022-08-19T09:54:03;12.18;;;5.30;;
58308;SDS011;44117;57.142;24.826;2022-08-19T09:56:32;10.63;;;5.50;;
58308;SDS011;44117;57.142;24.826;2022-08-19T09:59:00;8.50;;;4.90;;
58308;SDS011;44117;57.142;24.826;2022-08-19T10:01:30;16.27;;;5.10;;
58308;SDS011;44117;57.142;24.826;2022-08-19T10:03:59;13.52;;;5.07;;
58308;SDS011;44117;57.142;24.826;2022-08-19T10:06:40;10.60;;;4.93;;
58308;SDS011;44117;57.142;24.826;2022-08-19T10:09:12;15.38;;;5.22;;
58308;SDS011;44117;57.142;24.826;2022-08-19T10:11:42;12.65;;;5.07;;
58308;SDS011;44117;57.142;24.826;2022-08-19T10:14:20;12.70;;;5.20;;
58308;SDS011;44117;57.142;24.826;2022-08-19T10:16:50;12.95;;;5.22;;
58308;SDS011;44117;57.142;24.826;2022-08-19T10:19:18;15.88;;;5.70;;
58308;SDS011;44117;57.142;24.826;2022-08-19T10:21:51;10.93;;;5.13;;
58308;SDS011;44117;57.142;24.826;2022-08-19T10:24:25;15.85;;;5.57;;
58308;SDS011;44117;57.142;24.826;2022-08-19T10:26:54;11.45;;;5.53;;
58308;SDS011;44117;57.142;24.826;2022-08-19T10:29:25;9.07;;;5.20;;
58308;SDS011;44117;57.142;24.826;2022-08-19T10:32:02;8.48;;;4.88;;
58308;SDS011;44117;57.142;24.826;2022-08-19T10:34:38;12.65;;;5.03;;
58308;SDS011;44117;57.142;24.826;2022-08-19T10:37:14;14.25;;;5.15;;
58308;SDS011;44117;57.142;24.826;2022-08-19T10:39:54;12.73;;;5.20;;
58308;SDS011;44117;57.142;24.826;2022-08-19T10:42:21;10.35;;;5.13;;
58308;SDS011;44117;57.142;24.826;2022-08-19T10:44:49;12.15;;;5.32;;
58308;SDS011;44117;57.142;24.826;2022-08-19T10:47:17;11.85;;;5.18;;
58308;SDS011;44117;57.142;24.826;2022-08-19T10:49:51;11.43;;;5.30;;
58308;SDS011;44117;57.142;24.826;2022-08-19T10:52:41;10.48;;;5.10;;
58308;SDS011;44117;57.142;24.826;2022-08-19T10:55:16;11.73;;;5.32;;
58308;SDS011;44117;57.142;24.826;2022-08-19T10:58:13;13.57;;;5.00;;
58308;SDS011;44117;57.142;24.826;2022-08-19T11:00:43;8.77;;;5.25;;
58308;SDS011;44117;57.142;24.826;2022-08-19T11:03:17;14.05;;;5.43;;
58308;SDS011;44117;57.142;24.826;2022-08-19T11:05:45;13.82;;;5.30;;
58308;SDS011;44117;57.142;24.826;2022-08-19T11:08:12;26.90;;;5.70;;
58308;SDS011;44117;57.142;24.826;2022-08-19T11:10:48;13.07;;;5.00;;
58308;SDS011;44117;57.142;24.826;2022-08-19T11:13:23;11.45;;;4.80;;
58308;SDS011;44117;57.142;24.826;2022-08-19T11:16:00;17.23;;;5.30;;
58308;SDS011;44117;57.142;24.826;2022-08-19T11:18:48;12.05;;;5.10;;
58308;SDS011;44117;57.142;24.826;2022-08-19T11:21:21;16.17;;;4.93;;
58308;SDS011;44117;57.142;24.826;2022-08-19T11:23:51;12.65;;;4.68;;
58308;SDS011;44117;57.142;24.826;2022-08-19T11:26:20;10.10;;;4.80;;
58308;SDS011;44117;57.142;24.826;2022-08-19T11:28:48;12.68;;;5.22;;
58308;SDS011;44117;57.142;24.826;2022-08-19T11:31:22;9.60;;;4.60;;
58308;SDS011;44117;57.142;24.826;2022-08-19T11:33:58;11.02;;;4.90;;
58308;SDS011;44117;57.142;24.826;2022-08-19T11:36:29;14.43;;;5.38;;
58308;SDS011;44117;57.142;24.826;2022-08-19T11:38:59;7.57;;;4.32;;
58308;SDS011;44117;57.142;24.826;2022-08-19T11:41:27;10.88;;;4.53;;
58308;SDS011;44117;57.142;24.826;2022-08-19T11:43:54;10.82;;;4.43;;
58308;SDS011;44117;57.142;24.826;2022-08-19T11:46:23;14.10;;;4.72;;
58308;SDS011;44117;57.142;24.826;2022-08-19T11:48:51;16.25;;;4.75;;
58308;SDS011;44117;57.142;24.826;2022-08-19T11:51:20;16.60;;;5.43;;
58308;SDS011;44117;57.142;24.826;2022-08-19T11:53:51;12.88;;;5.32;;
58308;SDS011;44117;57.142;24.826;2022-08-19T11:56:20;10.20;;;4.50;;
58308;SDS011;44117;57.142;24.826;2022-08-19T11:58:49;11.77;;;4.82;;
58308;SDS011;44117;57.142;24.826;2022-08-19T12:01:19;12.75;;;4.72;;
58308;SDS011;44117;57.142;24.826;2022-08-19T12:03:48;10.40;;;5.05;;
58308;SDS011;44117;57.142;24.826;2022-08-19T12:06:18;9.63;;;4.53;;
58308;SDS011;44117;57.142;24.826;2022-08-19T12:10:08;18.50;;;5.38;;
58308;SDS011;44117;57.142;24.826;2022-08-19T12:13:59;10.35;;;4.78;;
58308;SDS011;44117;57.142;24.826;2022-08-19T12:17:50;7.13;;;4.65;;
58308;SDS011;44117;57.142;24.826;2022-08-19T12:21:40;12.95;;;5.70;;
58308;SDS011;44117;57.142;24.826;2022-08-19T12:25:31;13.15;;;5.00;;
58308;SDS011;44117;57.142;24.826;2022-08-19T12:29:47;10.27;;;5.60;;
58308;SDS011;44117;57.142;24.826;2022-08-19T12:33:38;8.85;;;5.05;;
58308;SDS011;44117;57.142;24.826;2022-08-19T12:37:29;13.75;;;5.20;;
58308;SDS011;44117;57.142;24.826;2022-08-19T12:41:20;11.48;;;5.40;;
58308;SDS011;44117;57.142;24.826;2022-08-19T12:45:12;10.68;;;5.60;;
58308;SDS011;44117;57.142;24.826;2022-08-19T12:49:02;10.38;;;7.05;;
58308;SDS011;44117;57.142;24.826;2022-08-19T12:52:53;12.38;;;6.07;;
58308;SDS011;44117;57.142;24.826;2022-08-19T12:56:44;20.17;;;6.63;;
58308;SDS011;44117;57.142;24.826;2022-08-19T13:00:35;15.85;;;6.55;;
58308;SDS011;44117;57.142;24.826;2022-08-19T13:04:26;14.77;;;6.47;;
58308;SDS011;44117;57.142;24.826;2022-08-19T13:08:17;10.98;;;6.50;;
58308;SDS011;44117;57.142;24.826;2022-08-19T13:12:07;14.95;;;5.88;;
58308;SDS011;44117;57.142;24.826;2022-08-19T13:16:00;12.10;;;5.88;;
58308;SDS011;44117;57.142;24.826;2022-08-19T13:19:49;10.75;;;6.30;;
58308;SDS011;44117;57.142;24.826;2022-08-19T13:23:40;9.18;;;6.18;;
58308;SDS011;44117;57.142;24.826;2022-08-19T13:27:31;9.15;;;6.10;;
58308;SDS011;44117;57.142;24.826;2022-08-19T13:31:23;19.70;;;6.18;;
58308;SDS011;44117;57.142;24.826;2022-08-19T13:35:11;11.05;;;6.40;;
58308;SDS011;44117;57.142;24.826;2022-08-19T13:39:03;11.88;;;5.93;;
58308;SDS011;44117;57.142;24.826;2022-08-19T13:42:53;12.60;;;6.30;;
58308;SDS011;44117;57.142;24.826;2022-08-19T13:46:45;13.73;;;5.75;;
58308;SDS011;44117;57.142;24.826;2022-08-19T13:50:39;10.75;;;6.00;;
58308;SDS011;44117;57.142;24.826;2022-08-19T13:54:26;12.60;;;6.75;;
58308;SDS011;44117;57.142;24.826;2022-08-19T13:58:17;13.30;;;5.95;;
58308;SDS011;44117;57.142;24.826;2022-08-19T14:02:07;11.77;;;5.95;;
58308;SDS011;44117;57.142;24.826;2022-08-19T14:05:58;18.15;;;5.68;;
58308;SDS011;44117;57.142;24.826;2022-08-19T14:09:49;10.68;;;5.43;;
58308;SDS011;44117;57.142;24.826;2022-08-19T14:13:40;11.77;;;6.20;;
58308;SDS011;44117;57.142;24.826;2022-08-19T14:17:31;13.15;;;6.22;;
58308;SDS011;44117;57.142;24.826;2022-08-19T14:21:23;10.48;;;5.78;;
58308;SDS011;44117;57.142;24.826;2022-08-19T14:25:15;17.92;;;5.93;;
58308;SDS011;44117;57.142;24.826;2022-08-19T14:29:04;13.38;;;5.50;;
58308;SDS011;44117;57.142;24.826;2022-08-19T14:33:01;12.75;;;5.53;;
58308;SDS011;44117;57.142;24.826;2022-08-19T14:36:57;13.60;;;5.05;;
58308;SDS011;44117;57.142;24.826;2022-08-19T14:40:52;16.42;;;5.43;;
58308;SDS011;44117;57.142;24.826;2022-08-19T14:44:47;15.32;;;5.28;;
58308;SDS011;44117;57.142;24.826;2022-08-19T14:48:43;18.05;;;5.82;;
58308;SDS011;44117;57.142;24.826;2022-08-19T14:52:39;13.90;;;5.47;;
58308;SDS011;44117;57.142;24.826;2022-08-19T14:56:34;15.45;;;5.22;;
58308;SDS011;44117;57.142;24.826;2022-08-19T15:00:30;14.00;;;5.25;;
58308;SDS011;44117;57.142;24.826;2022-08-19T15:04:25;11.85;;;5.03;;
58308;SDS011;44117;57.142;24.826;2022-08-19T15:08:21;9.65;;;4.65;;
58308;SDS011;44117;57.142;24.826;2022-08-19T15:12:17;9.80;;;4.95;;
58308;SDS011;44117;57.142;24.826;2022-08-19T15:16:13;13.25;;;5.30;;
58308;SDS011;44117;57.142;24.826;2022-08-19T15:20:10;15.10;;;4.85;;
58308;SDS011;44117;57.142;24.826;2022-08-19T15:24:05;10.38;;;5.25;;
58308;SDS011;44117;57.142;24.826;2022-08-19T15:28:00;11.95;;;5.05;;
58308;SDS011;44117;57.142;24.826;2022-08-19T15:31:56;12.88;;;4.90;;
58308;SDS011;44117;57.142;24.826;2022-08-19T15:35:52;10.60;;;4.90;;
58308;SDS011;44117;57.142;24.826;2022-08-19T15:39:48;9.25;;;4.57;;
58308;SDS011;44117;57.142;24.826;2022-08-19T15:43:44;10.80;;;4.68;;
58308;SDS011;44117;57.142;24.826;2022-08-19T15:47:39;12.07;;;4.30;;
58308;SDS011;44117;57.142;24.826;2022-08-19T15:51:36;7.97;;;4.90;;
58308;SDS011;44117;57.142;24.826;2022-08-19T15:55:31;14.50;;;4.88;;
58308;SDS011;44117;57.142;24.826;2022-08-19T15:59:26;9.05;;;4.68;;
58308;SDS011;44117;57.142;24.826;2022-08-19T16:03:21;10.65;;;4.15;;
58308;SDS011;44117;57.142;24.826;2022-08-19T16:07:17;15.35;;;4.53;;
58308;SDS011;44117;57.142;24.826;2022-08-19T16:11:13;8.95;;;5.38;;
58308;SDS011;44117;57.142;24.826;2022-08-19T16:15:10;13.05;;;5.28;;
58308;SDS011;44117;57.142;24.826;2022-08-19T16:19:06;8.55;;;5.03;;
58308;SDS011;44117;57.142;24.826;2022-08-19T16:23:01;16.38;;;5.80;;
58308;SDS011;44117;57.142;24.826;2022-08-19T16:26:57;11.18;;;5.40;;
58308;SDS011;44117;57.142;24.826;2022-08-19T16:30:53;15.13;;;5.25;;
58308;SDS011;44117;57.142;24.826;2022-08-19T16:34:50;20.48;;;5.65;;
58308;SDS011;44117;57.142;24.826;2022-08-19T16:38:46;20.30;;;6.22;;
58308;SDS011;44117;57.142;24.826;2022-08-19T16:42:44;16.17;;;6.35;;
58308;SDS011;44117;57.142;24.826;2022-08-19T16:46:40;20.67;;;6.47;;
58308;SDS011;44117;57.142;24.826;2022-08-19T16:50:36;17.10;;;6.25;;